createdAt,value
2019-01-18T00:02:43.088Z,33.70
2019-01-18T00:07:48.330Z,33.53
2019-01-18T00:12:53.386Z,33.63
2019-01-18T00:17:58.387Z,33.00
2019-01-18T00:23:03.448Z,33.47
2019-01-18T00:28:08.788Z,37.40
2019-01-18T00:33:13.858Z,36.50
2019-01-18T00:38:18.918Z,32.80
2019-01-18T00:43:24.484Z,32.30
2019-01-18T00:48:29.590Z,34.17
2019-01-18T00:53:35.224Z,30.43
2019-01-18T00:58:40.386Z,33.67
2019-01-18T01:03:45.720Z,33.80
2019-01-18T01:08:50.857Z,32.27
2019-01-18T01:13:56.108Z,32.57
2019-01-18T01:19:01.132Z,33.47
2019-01-18T01:24:06.668Z,38.63
2019-01-18T01:29:11.673Z,35.27
2019-01-18T01:34:16.686Z,32.13
2019-01-18T01:39:21.838Z,36.00
2019-01-18T01:44:26.878Z,33.10
2019-01-18T01:49:31.922Z,36.37
2019-01-18T01:54:37.277Z,34.33
2019-01-18T01:59:49.661Z,33.40
2019-01-18T02:04:51.184Z,32.00
2019-01-18T02:09:56.356Z,35.03
2019-01-18T02:15:01.750Z,39.63
2019-01-18T02:20:07.928Z,34.53
2019-01-18T02:25:13.192Z,34.90
2019-01-18T02:30:29.531Z,34.70
2019-01-18T02:35:34.694Z,34.47
2019-01-18T02:40:40.094Z,37.37
2019-01-18T02:45:45.533Z,35.87
2019-01-18T02:50:50.790Z,35.83
2019-01-18T02:55:55.867Z,35.90
2019-01-18T03:01:00.842Z,36.10
2019-01-18T03:06:06.236Z,38.87
2019-01-18T03:11:12.615Z,37.80
2019-01-18T03:16:17.675Z,38.47
2019-01-18T03:21:22.646Z,36.57
2019-01-18T03:26:27.635Z,41.77
2019-01-18T03:31:32.659Z,46.20
2019-01-18T03:36:38.683Z,42.37
2019-01-18T03:41:43.865Z,40.13
2019-01-18T03:46:48.896Z,44.67
2019-01-18T03:51:55.219Z,40.53
2019-01-18T03:57:00.231Z,38.70
2019-01-18T04:02:05.445Z,40.03
2019-01-18T04:07:10.534Z,38.53
2019-01-18T04:12:18.067Z,39.23
2019-01-18T04:17:23.537Z,40.43
2019-01-18T04:22:29.067Z,42.67
2019-01-18T04:27:34.090Z,42.93
2019-01-18T04:32:39.262Z,45.30
2019-01-18T04:37:44.703Z,41.40
2019-01-18T04:42:49.741Z,41.70
2019-01-18T04:47:54.735Z,44.33
2019-01-18T04:53:00.075Z,41.20
2019-01-18T04:58:05.102Z,39.23
2019-01-18T05:03:10.572Z,42.53
2019-01-18T05:08:15.829Z,41.97
2019-01-18T05:13:21.183Z,45.03
2019-01-18T05:18:26.325Z,46.87
2019-01-18T05:23:36.455Z,44.63
2019-01-18T05:28:41.618Z,47.63
2019-01-18T05:33:47.113Z,48.67
2019-01-18T05:38:52.114Z,49.67
2019-01-18T05:43:57.338Z,51.00
2019-01-18T05:49:02.490Z,47.33
2019-01-18T05:54:07.927Z,46.10
2019-01-18T05:59:13.014Z,50.50
2019-01-18T06:04:17.956Z,44.70
2019-01-18T06:09:23.006Z,43.93
2019-01-18T06:14:28.087Z,41.60
2019-01-18T06:19:34.014Z,44.63
2019-01-18T06:24:39.074Z,43.93
2019-01-18T06:29:44.088Z,44.00
2019-01-18T06:34:49.990Z,45.50
2019-01-18T06:39:55.768Z,40.50
2019-01-18T06:45:00.814Z,42.13
2019-01-18T06:50:08.523Z,42.20
2019-01-18T06:55:13.710Z,42.03
2019-01-18T07:00:26.828Z,39.30
2019-01-18T07:05:31.910Z,40.17
2019-01-18T07:10:36.946Z,37.23
2019-01-18T07:15:42.042Z,34.87
2019-01-18T07:20:47.079Z,38.67
2019-01-18T07:25:52.289Z,36.80
2019-01-18T07:30:57.640Z,36.17
2019-01-18T07:36:03.976Z,43.77
2019-01-18T07:41:09.126Z,42.77
2019-01-18T07:46:14.174Z,40.27
2019-01-18T07:51:19.188Z,37.70
2019-01-18T07:56:24.274Z,40.50
2019-01-18T08:01:29.520Z,38.27
2019-01-18T08:06:34.705Z,33.20
2019-01-18T08:11:40.066Z,28.23
2019-01-18T08:16:45.119Z,30.93
2019-01-18T08:21:51.714Z,34.13
2019-01-18T08:26:57.069Z,25.87
2019-01-18T08:32:03.115Z,27.07
2019-01-18T08:37:08.285Z,23.90
2019-01-18T08:42:13.396Z,24.10
2019-01-18T08:47:18.676Z,27.97
2019-01-18T08:52:41.991Z,25.00
2019-01-18T08:57:47.527Z,22.50
2019-01-18T09:02:52.786Z,26.17
2019-01-18T09:07:57.843Z,25.17
2019-01-18T09:13:21.044Z,26.20
2019-01-18T09:18:29.336Z,27.67
2019-01-18T09:23:45.743Z,26.67
2019-01-18T09:28:52.379Z,30.27
2019-01-18T09:33:58.730Z,30.37
2019-01-18T09:39:05.703Z,31.80
2019-01-18T09:49:57.008Z,26.90
2019-01-18T09:55:20.263Z,25.17
2019-01-18T10:00:26.751Z,24.20
2019-01-18T10:05:32.948Z,24.77
2019-01-18T10:10:39.332Z,19.17
2019-01-18T10:15:46.301Z,20.47
2019-01-18T10:20:51.785Z,18.87
2019-01-18T10:25:56.859Z,22.87
2019-01-18T10:31:02.295Z,18.13
2019-01-18T10:36:07.400Z,25.27
2019-01-18T10:41:13.736Z,19.90
2019-01-18T10:46:18.801Z,20.17
2019-01-18T10:51:24.238Z,23.30
2019-01-18T10:56:30.225Z,21.97
2019-01-18T11:01:40.431Z,20.87
2019-01-18T11:06:49.553Z,22.87
2019-01-18T11:11:54.943Z,21.80
2019-01-18T11:16:59.944Z,24.00
2019-01-18T11:22:05.282Z,15.47
2019-01-18T11:27:10.351Z,16.87
2019-01-18T11:32:15.421Z,25.10
2019-01-18T11:37:20.658Z,25.30
2019-01-18T11:42:31.072Z,21.73
2019-01-18T11:47:36.361Z,27.87
2019-01-18T11:52:46.946Z,26.93
2019-01-18T11:57:52.304Z,32.07
2019-01-18T12:02:57.490Z,28.07
2019-01-18T12:08:02.587Z,26.20
2019-01-18T12:13:07.740Z,24.87
2019-01-18T12:18:12.828Z,28.90
2019-01-18T12:23:23.021Z,24.30
2019-01-18T12:28:28.455Z,36.23
2019-01-18T12:33:46.743Z,30.23
2019-01-18T12:38:52.165Z,26.97
2019-01-18T12:43:57.733Z,29.03
2019-01-18T12:49:02.801Z,29.40
2019-01-18T12:54:08.212Z,34.60
2019-01-18T12:59:13.307Z,33.37
2019-01-18T13:04:18.584Z,32.77
2019-01-18T13:09:23.801Z,30.13
2019-01-18T13:14:30.087Z,23.20
2019-01-18T13:19:36.163Z,23.50
2019-01-18T13:24:41.633Z,23.23
2019-01-18T13:29:48.246Z,28.40
2019-01-18T13:34:53.564Z,25.83
2019-01-18T13:39:58.828Z,23.40
2019-01-18T13:45:04.462Z,23.53
2019-01-18T13:50:13.146Z,23.13
2019-01-18T13:55:22.417Z,22.40
2019-01-18T14:00:28.497Z,25.10
2019-01-18T14:05:36.105Z,28.87
2019-01-18T14:10:41.426Z,32.60
2019-01-18T14:15:46.723Z,24.73
2019-01-18T14:20:52.333Z,24.87
2019-01-18T14:25:58.084Z,29.30
2019-01-18T14:31:05.415Z,25.03
2019-01-18T14:36:14.528Z,23.97
2019-01-18T14:41:17.575Z,23.23
2019-01-18T14:46:23.509Z,23.20
2019-01-18T14:51:29.101Z,26.57
2019-01-18T14:56:35.870Z,24.20
2019-01-18T15:01:54.053Z,25.47
2019-01-18T15:06:59.303Z,26.10
2019-01-18T15:12:04.947Z,30.63
2019-01-18T15:17:10.315Z,30.90
2019-01-18T15:22:15.828Z,28.27
2019-01-18T15:27:21.095Z,24.13
2019-01-18T15:32:26.849Z,32.17
2019-01-18T15:37:33.147Z,32.97
2019-01-18T15:42:38.918Z,28.53
2019-01-18T15:47:46.574Z,28.03
2019-01-18T15:52:52.503Z,28.43
2019-01-18T15:57:58.315Z,28.87
2019-01-18T16:03:05.283Z,28.77
2019-01-18T16:08:13.220Z,26.70
2019-01-18T16:13:19.937Z,29.53
2019-01-18T16:18:25.826Z,26.70
2019-01-18T16:23:31.718Z,35.00
2019-01-18T16:28:36.907Z,31.73
2019-01-18T16:33:42.435Z,31.10
2019-01-18T16:38:47.709Z,35.43
2019-01-18T16:43:52.899Z,34.60
2019-01-18T16:48:58.175Z,32.73
2019-01-18T16:54:08.360Z,32.07
2019-01-18T16:59:13.645Z,35.13
2019-01-18T17:04:19.247Z,36.77
2019-01-18T17:09:24.575Z,35.73
2019-01-18T17:14:30.049Z,31.73
2019-01-18T17:19:35.376Z,32.93
2019-01-18T17:24:40.661Z,28.13
2019-01-18T17:29:46.395Z,30.37
2019-01-18T17:34:52.308Z,34.33
2019-01-18T17:40:28.579Z,30.73
2019-01-18T17:46:32.973Z,31.83
2019-01-18T17:52:34.810Z,34.83
2019-01-18T17:58:26.783Z,35.17
2019-01-18T18:04:04.984Z,32.33
2019-01-18T18:09:18.345Z,35.53
2019-01-18T18:15:26.053Z,35.57
2019-01-18T18:21:03.379Z,32.40
2019-01-18T18:26:44.607Z,34.60
2019-01-18T18:32:24.961Z,36.70
2019-01-18T18:38:12.687Z,35.83
2019-01-18T18:43:54.097Z,35.10
2019-01-18T18:50:04.377Z,35.30
2019-01-18T18:55:55.841Z,36.57
2019-01-18T19:02:08.310Z,37.10
2019-01-18T19:07:46.405Z,37.77
2019-01-18T19:13:15.064Z,35.27
2019-01-18T19:18:48.647Z,35.60
2019-01-18T19:24:20.099Z,35.83
2019-01-18T19:30:15.630Z,36.37
2019-01-18T19:36:04.970Z,35.27
2019-01-18T19:41:33.101Z,34.07
2019-01-18T19:47:21.583Z,36.23
2019-01-18T19:53:05.009Z,34.80
2019-01-18T19:59:02.095Z,36.77
2019-01-18T20:04:52.876Z,38.23
2019-01-18T20:10:47.117Z,43.13
2019-01-18T20:16:22.551Z,38.30
2019-01-18T20:22:07.060Z,39.80
2019-01-18T20:27:47.543Z,43.10
2019-01-18T20:33:30.144Z,38.93
2019-01-18T20:39:01.241Z,36.43
2019-01-18T20:44:23.597Z,37.57
2019-01-18T20:49:57.051Z,37.40
2019-01-18T20:55:31.093Z,34.93
2019-01-18T21:01:03.473Z,39.13
2019-01-18T21:06:26.503Z,34.60
2019-01-18T21:12:03.922Z,40.43
2019-01-18T21:17:41.100Z,38.50
2019-01-18T21:23:22.586Z,40.00
2019-01-18T21:28:45.101Z,36.17
2019-01-18T21:34:05.526Z,40.50
2019-01-18T21:39:54.073Z,36.63
2019-01-18T21:45:43.020Z,39.33
2019-01-18T21:51:27.219Z,35.53
2019-01-18T21:56:58.010Z,36.50
2019-01-18T22:02:35.471Z,44.17
2019-01-18T22:08:49.385Z,35.70
2019-01-18T22:14:59.778Z,37.27
2019-01-18T22:20:29.909Z,40.80
2019-01-18T22:26:22.278Z,42.90
2019-01-18T22:32:04.898Z,40.93
2019-01-18T22:37:41.026Z,44.77
2019-01-18T22:43:14.541Z,41.73
2019-01-18T22:48:53.550Z,41.57
2019-01-18T22:54:31.088Z,42.30
2019-01-18T23:00:35.648Z,40.93
2019-01-18T23:06:14.868Z,46.00
2019-01-18T23:11:41.095Z,42.97
2019-01-18T23:17:32.932Z,38.87
2019-01-18T23:23:25.667Z,48.83
2019-01-18T23:28:59.887Z,41.57
2019-01-18T23:34:18.776Z,37.57
2019-01-18T23:40:15.081Z,35.30
2019-01-18T23:46:13.733Z,34.03
2019-01-18T23:51:54.975Z,40.27
2019-01-18T23:57:32.127Z,34.40
